sensor_id;sensor_type;location;lat;lon;timestamp;P1;durP1;ratioP1;P2;durP2;ratioP2
15312;SDS011;7757;52.626;4.746;2023-12-04T00:01:54;10.77;;;3.15;;
15312;SDS011;7757;52.626;4.746;2023-12-04T00:04:19;11.30;;;3.72;;
15312;SDS011;7757;52.626;4.746;2023-12-04T00:06:45;11.45;;;3.55;;
15312;SDS011;7757;52.626;4.746;2023-12-04T00:09:10;13.65;;;3.72;;
15312;SDS011;7757;52.626;4.746;2023-12-04T00:11:36;11.18;;;3.63;;
15312;SDS011;7757;52.626;4.746;2023-12-04T00:14:01;12.00;;;3.28;;
15312;SDS011;7757;52.626;4.746;2023-12-04T00:16:26;11.50;;;3.38;;
15312;SDS011;7757;52.626;4.746;2023-12-04T00:18:52;11.57;;;3.60;;
15312;SDS011;7757;52.626;4.746;2023-12-04T00:21:17;12.00;;;4.00;;
15312;SDS011;7757;52.626;4.746;2023-12-04T00:23:43;12.98;;;3.47;;
15312;SDS011;7757;52.626;4.746;2023-12-04T00:26:09;12.32;;;4.15;;
15312;SDS011;7757;52.626;4.746;2023-12-04T00:28:37;11.82;;;3.45;;
15312;SDS011;7757;52.626;4.746;2023-12-04T00:31:03;11.63;;;3.42;;
15312;SDS011;7757;52.626;4.746;2023-12-04T00:33:28;12.13;;;3.75;;
15312;SDS011;7757;52.626;4.746;2023-12-04T00:35:54;11.70;;;3.50;;
15312;SDS011;7757;52.626;4.746;2023-12-04T00:38:19;10.70;;;3.40;;
15312;SDS011;7757;52.626;4.746;2023-12-04T00:40:45;11.50;;;3.50;;
15312;SDS011;7757;52.626;4.746;2023-12-04T00:43:10;11.30;;;3.20;;
15312;SDS011;7757;52.626;4.746;2023-12-04T00:45:36;12.75;;;3.60;;
15312;SDS011;7757;52.626;4.746;2023-12-04T00:48:02;11.80;;;3.65;;
15312;SDS011;7757;52.626;4.746;2023-12-04T00:50:29;12.32;;;3.50;;
15312;SDS011;7757;52.626;4.746;2023-12-04T00:52:55;12.38;;;3.72;;
15312;SDS011;7757;52.626;4.746;2023-12-04T00:55:21;11.52;;;3.83;;
15312;SDS011;7757;52.626;4.746;2023-12-04T00:57:46;11.02;;;3.10;;
15312;SDS011;7757;52.626;4.746;2023-12-04T01:00:12;11.77;;;3.40;;
15312;SDS011;7757;52.626;4.746;2023-12-04T01:02:39;10.35;;;3.10;;
15312;SDS011;7757;52.626;4.746;2023-12-04T01:05:05;11.52;;;3.55;;
15312;SDS011;7757;52.626;4.746;2023-12-04T01:07:30;11.23;;;3.35;;
15312;SDS011;7757;52.626;4.746;2023-12-04T01:09:57;12.02;;;3.83;;
15312;SDS011;7757;52.626;4.746;2023-12-04T01:12:22;13.15;;;3.67;;
15312;SDS011;7757;52.626;4.746;2023-12-04T01:14:47;10.75;;;3.25;;
15312;SDS011;7757;52.626;4.746;2023-12-04T01:17:13;10.93;;;3.40;;
15312;SDS011;7757;52.626;4.746;2023-12-04T01:19:38;10.48;;;3.15;;
15312;SDS011;7757;52.626;4.746;2023-12-04T01:22:06;11.55;;;3.22;;
15312;SDS011;7757;52.626;4.746;2023-12-04T01:24:32;12.27;;;3.45;;
15312;SDS011;7757;52.626;4.746;2023-12-04T01:26:58;11.02;;;2.97;;
15312;SDS011;7757;52.626;4.746;2023-12-04T01:29:24;12.05;;;3.55;;
15312;SDS011;7757;52.626;4.746;2023-12-04T01:31:49;11.52;;;3.30;;
15312;SDS011;7757;52.626;4.746;2023-12-04T01:34:16;10.50;;;3.17;;
15312;SDS011;7757;52.626;4.746;2023-12-04T01:36:41;11.32;;;3.33;;
15312;SDS011;7757;52.626;4.746;2023-12-04T01:39:07;12.75;;;3.15;;
15312;SDS011;7757;52.626;4.746;2023-12-04T01:41:32;12.10;;;3.10;;
15312;SDS011;7757;52.626;4.746;2023-12-04T01:43:58;11.95;;;3.17;;
15312;SDS011;7757;52.626;4.746;2023-12-04T01:46:23;12.10;;;3.40;;
15312;SDS011;7757;52.626;4.746;2023-12-04T01:48:49;11.73;;;3.08;;
15312;SDS011;7757;52.626;4.746;2023-12-04T01:51:15;11.20;;;3.22;;
15312;SDS011;7757;52.626;4.746;2023-12-04T01:53:42;10.50;;;3.20;;
15312;SDS011;7757;52.626;4.746;2023-12-04T01:56:09;12.82;;;3.65;;
15312;SDS011;7757;52.626;4.746;2023-12-04T01:58:35;11.77;;;3.20;;
15312;SDS011;7757;52.626;4.746;2023-12-04T02:01:00;11.32;;;3.17;;
15312;SDS011;7757;52.626;4.746;2023-12-04T02:03:26;10.95;;;3.28;;
15312;SDS011;7757;52.626;4.746;2023-12-04T02:05:52;11.25;;;3.30;;
15312;SDS011;7757;52.626;4.746;2023-12-04T02:08:19;11.10;;;3.45;;
15312;SDS011;7757;52.626;4.746;2023-12-04T02:10:45;10.65;;;3.15;;
15312;SDS011;7757;52.626;4.746;2023-12-04T02:13:10;12.25;;;3.40;;
15312;SDS011;7757;52.626;4.746;2023-12-04T02:15:36;11.15;;;3.40;;
15312;SDS011;7757;52.626;4.746;2023-12-04T02:18:02;10.73;;;3.35;;
15312;SDS011;7757;52.626;4.746;2023-12-04T02:20:35;11.00;;;3.25;;
15312;SDS011;7757;52.626;4.746;2023-12-04T02:23:01;11.18;;;3.28;;
15312;SDS011;7757;52.626;4.746;2023-12-04T02:25:27;10.75;;;3.15;;
15312;SDS011;7757;52.626;4.746;2023-12-04T02:27:53;10.75;;;3.10;;
15312;SDS011;7757;52.626;4.746;2023-12-04T02:30:21;12.35;;;3.17;;
15312;SDS011;7757;52.626;4.746;2023-12-04T02:32:49;11.20;;;3.20;;
15312;SDS011;7757;52.626;4.746;2023-12-04T02:35:21;11.10;;;3.08;;
15312;SDS011;7757;52.626;4.746;2023-12-04T02:37:49;11.57;;;3.22;;
15312;SDS011;7757;52.626;4.746;2023-12-04T02:40:16;11.07;;;3.25;;
15312;SDS011;7757;52.626;4.746;2023-12-04T02:42:41;11.57;;;3.25;;
15312;SDS011;7757;52.626;4.746;2023-12-04T02:45:07;11.27;;;3.30;;
15312;SDS011;7757;52.626;4.746;2023-12-04T02:47:33;10.43;;;3.20;;
15312;SDS011;7757;52.626;4.746;2023-12-04T02:49:59;10.93;;;3.10;;
15312;SDS011;7757;52.626;4.746;2023-12-04T02:52:25;10.35;;;3.17;;
15312;SDS011;7757;52.626;4.746;2023-12-04T02:54:50;17.02;;;3.28;;
15312;SDS011;7757;52.626;4.746;2023-12-04T02:57:16;11.15;;;3.40;;
15312;SDS011;7757;52.626;4.746;2023-12-04T02:59:42;12.52;;;3.08;;
15312;SDS011;7757;52.626;4.746;2023-12-04T03:02:08;9.98;;;2.92;;
15312;SDS011;7757;52.626;4.746;2023-12-04T03:04:34;10.50;;;3.30;;
15312;SDS011;7757;52.626;4.746;2023-12-04T03:06:59;11.07;;;3.50;;
15312;SDS011;7757;52.626;4.746;2023-12-04T03:09:25;10.35;;;3.20;;
15312;SDS011;7757;52.626;4.746;2023-12-04T03:11:50;11.70;;;2.80;;
15312;SDS011;7757;52.626;4.746;2023-12-04T03:14:16;11.10;;;3.10;;
15312;SDS011;7757;52.626;4.746;2023-12-04T03:16:41;12.32;;;3.25;;
15312;SDS011;7757;52.626;4.746;2023-12-04T03:19:09;11.93;;;3.20;;
15312;SDS011;7757;52.626;4.746;2023-12-04T03:21:38;11.00;;;3.45;;
15312;SDS011;7757;52.626;4.746;2023-12-04T03:24:03;10.82;;;3.08;;
15312;SDS011;7757;52.626;4.746;2023-12-04T03:26:29;11.95;;;3.53;;
15312;SDS011;7757;52.626;4.746;2023-12-04T03:28:57;10.68;;;3.53;;
15312;SDS011;7757;52.626;4.746;2023-12-04T03:31:22;10.50;;;3.25;;
15312;SDS011;7757;52.626;4.746;2023-12-04T03:33:48;11.10;;;3.30;;
15312;SDS011;7757;52.626;4.746;2023-12-04T03:36:14;11.38;;;3.28;;
15312;SDS011;7757;52.626;4.746;2023-12-04T03:38:40;11.57;;;3.15;;
15312;SDS011;7757;52.626;4.746;2023-12-04T03:41:12;11.85;;;3.20;;
15312;SDS011;7757;52.626;4.746;2023-12-04T03:43:38;11.38;;;3.47;;
15312;SDS011;7757;52.626;4.746;2023-12-04T03:46:04;10.25;;;3.13;;
15312;SDS011;7757;52.626;4.746;2023-12-04T03:48:29;11.30;;;3.40;;
15312;SDS011;7757;52.626;4.746;2023-12-04T03:50:55;11.23;;;3.38;;
15312;SDS011;7757;52.626;4.746;2023-12-04T03:53:20;10.85;;;3.20;;
15312;SDS011;7757;52.626;4.746;2023-12-04T03:55:45;10.55;;;3.00;;
15312;SDS011;7757;52.626;4.746;2023-12-04T03:58:11;10.45;;;3.13;;
15312;SDS011;7757;52.626;4.746;2023-12-04T04:00:36;11.15;;;3.10;;
15312;SDS011;7757;52.626;4.746;2023-12-04T04:03:05;10.20;;;3.30;;
15312;SDS011;7757;52.626;4.746;2023-12-04T04:05:31;9.65;;;3.00;;
15312;SDS011;7757;52.626;4.746;2023-12-04T04:07:59;10.93;;;3.10;;
15312;SDS011;7757;52.626;4.746;2023-12-04T04:10:24;10.60;;;3.08;;
15312;SDS011;7757;52.626;4.746;2023-12-04T04:12:50;11.00;;;3.45;;
15312;SDS011;7757;52.626;4.746;2023-12-04T04:15:16;11.48;;;3.22;;
15312;SDS011;7757;52.626;4.746;2023-12-04T04:17:41;12.02;;;3.30;;
15312;SDS011;7757;52.626;4.746;2023-12-04T04:20:06;11.05;;;3.00;;
15312;SDS011;7757;52.626;4.746;2023-12-04T04:22:33;12.93;;;3.40;;
15312;SDS011;7757;52.626;4.746;2023-12-04T04:25:03;12.23;;;3.40;;
15312;SDS011;7757;52.626;4.746;2023-12-04T04:27:32;11.35;;;3.22;;
15312;SDS011;7757;52.626;4.746;2023-12-04T04:29:59;12.00;;;3.10;;
15312;SDS011;7757;52.626;4.746;2023-12-04T04:32:26;12.43;;;3.10;;
15312;SDS011;7757;52.626;4.746;2023-12-04T04:34:53;13.60;;;3.20;;
15312;SDS011;7757;52.626;4.746;2023-12-04T04:37:19;10.77;;;3.13;;
15312;SDS011;7757;52.626;4.746;2023-12-04T04:39:45;11.52;;;3.20;;
15312;SDS011;7757;52.626;4.746;2023-12-04T04:42:12;11.32;;;3.42;;
15312;SDS011;7757;52.626;4.746;2023-12-04T04:44:37;10.07;;;2.85;;
15312;SDS011;7757;52.626;4.746;2023-12-04T04:47:03;10.63;;;3.17;;
15312;SDS011;7757;52.626;4.746;2023-12-04T04:49:28;10.90;;;3.22;;
15312;SDS011;7757;52.626;4.746;2023-12-04T04:51:55;13.73;;;3.22;;
15312;SDS011;7757;52.626;4.746;2023-12-04T04:54:20;10.35;;;3.38;;
15312;SDS011;7757;52.626;4.746;2023-12-04T04:56:46;11.48;;;3.38;;
15312;SDS011;7757;52.626;4.746;2023-12-04T04:59:11;14.05;;;3.60;;
15312;SDS011;7757;52.626;4.746;2023-12-04T05:01:37;10.18;;;3.08;;
15312;SDS011;7757;52.626;4.746;2023-12-04T05:04:02;10.18;;;2.70;;
15312;SDS011;7757;52.626;4.746;2023-12-04T05:06:28;10.40;;;3.08;;
15312;SDS011;7757;52.626;4.746;2023-12-04T05:08:54;12.15;;;3.65;;
15312;SDS011;7757;52.626;4.746;2023-12-04T05:11:19;11.55;;;3.17;;
15312;SDS011;7757;52.626;4.746;2023-12-04T05:13:45;11.30;;;3.17;;
15312;SDS011;7757;52.626;4.746;2023-12-04T05:16:10;10.43;;;3.00;;
15312;SDS011;7757;52.626;4.746;2023-12-04T05:18:37;10.00;;;2.90;;
15312;SDS011;7757;52.626;4.746;2023-12-04T05:21:07;9.80;;;2.80;;
15312;SDS011;7757;52.626;4.746;2023-12-04T05:23:35;15.45;;;3.40;;
15312;SDS011;7757;52.626;4.746;2023-12-04T05:26:01;13.30;;;3.20;;
15312;SDS011;7757;52.626;4.746;2023-12-04T05:28:27;10.07;;;3.00;;
15312;SDS011;7757;52.626;4.746;2023-12-04T05:30:52;12.13;;;3.25;;
15312;SDS011;7757;52.626;4.746;2023-12-04T05:33:18;9.60;;;3.17;;
15312;SDS011;7757;52.626;4.746;2023-12-04T05:35:43;9.57;;;2.70;;
15312;SDS011;7757;52.626;4.746;2023-12-04T05:38:09;11.05;;;3.30;;
15312;SDS011;7757;52.626;4.746;2023-12-04T05:40:34;11.25;;;3.28;;
15312;SDS011;7757;52.626;4.746;2023-12-04T05:43:00;11.07;;;2.97;;
15312;SDS011;7757;52.626;4.746;2023-12-04T05:45:25;11.90;;;3.25;;
15312;SDS011;7757;52.626;4.746;2023-12-04T05:47:50;9.15;;;2.60;;
15312;SDS011;7757;52.626;4.746;2023-12-04T05:50:17;9.48;;;2.65;;
15312;SDS011;7757;52.626;4.746;2023-12-04T05:52:44;10.00;;;2.70;;
15312;SDS011;7757;52.626;4.746;2023-12-04T05:55:11;10.32;;;2.63;;
15312;SDS011;7757;52.626;4.746;2023-12-04T05:57:38;10.82;;;3.40;;
15312;SDS011;7757;52.626;4.746;2023-12-04T06:00:05;12.00;;;3.00;;
15312;SDS011;7757;52.626;4.746;2023-12-04T06:02:46;10.90;;;3.15;;
15312;SDS011;7757;52.626;4.746;2023-12-04T06:05:12;9.88;;;2.90;;
15312;SDS011;7757;52.626;4.746;2023-12-04T06:07:37;9.82;;;3.00;;
15312;SDS011;7757;52.626;4.746;2023-12-04T06:10:03;9.82;;;3.10;;
15312;SDS011;7757;52.626;4.746;2023-12-04T06:12:30;11.90;;;3.63;;
15312;SDS011;7757;52.626;4.746;2023-12-04T06:14:56;10.65;;;2.90;;
15312;SDS011;7757;52.626;4.746;2023-12-04T06:17:23;10.70;;;3.35;;
15312;SDS011;7757;52.626;4.746;2023-12-04T06:19:50;11.35;;;2.80;;
15312;SDS011;7757;52.626;4.746;2023-12-04T06:22:16;11.95;;;3.17;;
15312;SDS011;7757;52.626;4.746;2023-12-04T06:24:43;10.48;;;3.08;;
15312;SDS011;7757;52.626;4.746;2023-12-04T06:27:09;11.30;;;3.10;;
15312;SDS011;7757;52.626;4.746;2023-12-04T06:29:38;15.30;;;2.90;;
15312;SDS011;7757;52.626;4.746;2023-12-04T06:32:06;11.32;;;2.60;;
15312;SDS011;7757;52.626;4.746;2023-12-04T06:34:32;10.20;;;2.88;;
15312;SDS011;7757;52.626;4.746;2023-12-04T06:36:58;10.43;;;2.72;;
15312;SDS011;7757;52.626;4.746;2023-12-04T06:39:25;10.20;;;2.95;;
15312;SDS011;7757;52.626;4.746;2023-12-04T06:41:57;9.52;;;2.70;;
15312;SDS011;7757;52.626;4.746;2023-12-04T06:44:22;9.70;;;2.60;;
15312;SDS011;7757;52.626;4.746;2023-12-04T06:46:48;11.27;;;3.15;;
15312;SDS011;7757;52.626;4.746;2023-12-04T06:49:19;11.50;;;3.20;;
15312;SDS011;7757;52.626;4.746;2023-12-04T06:51:45;10.25;;;2.50;;
15312;SDS011;7757;52.626;4.746;2023-12-04T06:54:12;14.32;;;3.05;;
15312;SDS011;7757;52.626;4.746;2023-12-04T06:56:39;11.60;;;2.67;;
15312;SDS011;7757;52.626;4.746;2023-12-04T06:59:05;10.82;;;2.85;;
15312;SDS011;7757;52.626;4.746;2023-12-04T07:01:31;10.18;;;3.03;;
15312;SDS011;7757;52.626;4.746;2023-12-04T07:03:57;9.30;;;2.28;;
15312;SDS011;7757;52.626;4.746;2023-12-04T07:06:27;10.88;;;3.05;;
15312;SDS011;7757;52.626;4.746;2023-12-04T07:08:52;15.63;;;3.33;;
15312;SDS011;7757;52.626;4.746;2023-12-04T07:11:21;14.15;;;3.00;;
15312;SDS011;7757;52.626;4.746;2023-12-04T07:13:46;12.25;;;3.10;;
15312;SDS011;7757;52.626;4.746;2023-12-04T07:16:11;12.57;;;2.80;;
15312;SDS011;7757;52.626;4.746;2023-12-04T07:18:41;10.98;;;2.83;;
15312;SDS011;7757;52.626;4.746;2023-12-04T07:21:06;13.15;;;3.10;;
15312;SDS011;7757;52.626;4.746;2023-12-04T07:23:34;11.65;;;2.60;;
15312;SDS011;7757;52.626;4.746;2023-12-04T07:26:00;14.23;;;3.45;;
15312;SDS011;7757;52.626;4.746;2023-12-04T07:28:26;10.77;;;2.53;;
15312;SDS011;7757;52.626;4.746;2023-12-04T07:30:52;11.35;;;2.65;;
15312;SDS011;7757;52.626;4.746;2023-12-04T07:33:20;10.52;;;2.50;;
15312;SDS011;7757;52.626;4.746;2023-12-04T07:35:45;10.05;;;2.47;;
15312;SDS011;7757;52.626;4.746;2023-12-04T07:38:12;10.15;;;2.90;;
15312;SDS011;7757;52.626;4.746;2023-12-04T07:40:38;16.15;;;2.65;;
15312;SDS011;7757;52.626;4.746;2023-12-04T07:43:03;12.00;;;3.15;;
15312;SDS011;7757;52.626;4.746;2023-12-04T07:45:30;11.40;;;2.70;;
15312;SDS011;7757;52.626;4.746;2023-12-04T07:47:56;12.32;;;2.95;;
15312;SDS011;7757;52.626;4.746;2023-12-04T07:50:23;12.25;;;2.45;;
15312;SDS011;7757;52.626;4.746;2023-12-04T07:52:50;10.68;;;2.67;;
15312;SDS011;7757;52.626;4.746;2023-12-04T07:55:17;11.10;;;2.60;;
15312;SDS011;7757;52.626;4.746;2023-12-04T07:57:44;11.38;;;2.55;;
15312;SDS011;7757;52.626;4.746;2023-12-04T08:00:10;9.95;;;2.30;;
15312;SDS011;7757;52.626;4.746;2023-12-04T08:02:36;9.50;;;2.55;;
15312;SDS011;7757;52.626;4.746;2023-12-04T08:05:03;9.45;;;2.55;;
15312;SDS011;7757;52.626;4.746;2023-12-04T08:07:28;9.38;;;2.42;;
15312;SDS011;7757;52.626;4.746;2023-12-04T08:09:54;9.98;;;2.53;;
15312;SDS011;7757;52.626;4.746;2023-12-04T08:12:19;11.18;;;2.35;;
15312;SDS011;7757;52.626;4.746;2023-12-04T08:14:45;8.27;;;2.20;;
15312;SDS011;7757;52.626;4.746;2023-12-04T08:17:11;9.30;;;2.50;;
15312;SDS011;7757;52.626;4.746;2023-12-04T08:19:38;9.23;;;2.33;;
15312;SDS011;7757;52.626;4.746;2023-12-04T08:22:04;7.82;;;2.20;;
15312;SDS011;7757;52.626;4.746;2023-12-04T08:24:31;9.20;;;2.47;;
15312;SDS011;7757;52.626;4.746;2023-12-04T08:26:56;9.38;;;2.40;;
15312;SDS011;7757;52.626;4.746;2023-12-04T08:29:22;9.82;;;2.40;;
15312;SDS011;7757;52.626;4.746;2023-12-04T08:31:49;9.20;;;2.58;;
15312;SDS011;7757;52.626;4.746;2023-12-04T08:34:14;7.97;;;2.00;;
15312;SDS011;7757;52.626;4.746;2023-12-04T08:36:40;8.55;;;2.50;;
15312;SDS011;7757;52.626;4.746;2023-12-04T08:39:06;9.23;;;2.40;;
15312;SDS011;7757;52.626;4.746;2023-12-04T08:41:31;8.63;;;2.22;;
15312;SDS011;7757;52.626;4.746;2023-12-04T08:43:57;8.93;;;2.40;;
15312;SDS011;7757;52.626;4.746;2023-12-04T08:46:22;8.23;;;2.20;;
15312;SDS011;7757;52.626;4.746;2023-12-04T08:48:48;9.18;;;2.30;;
15312;SDS011;7757;52.626;4.746;2023-12-04T08:51:17;9.23;;;2.22;;
15312;SDS011;7757;52.626;4.746;2023-12-04T08:53:42;9.27;;;2.20;;
15312;SDS011;7757;52.626;4.746;2023-12-04T08:56:11;8.18;;;2.03;;
15312;SDS011;7757;52.626;4.746;2023-12-04T08:58:36;8.85;;;2.40;;
15312;SDS011;7757;52.626;4.746;2023-12-04T09:01:03;8.77;;;2.10;;
15312;SDS011;7757;52.626;4.746;2023-12-04T09:03:29;9.70;;;2.60;;
15312;SDS011;7757;52.626;4.746;2023-12-04T09:05:56;7.80;;;2.03;;
15312;SDS011;7757;52.626;4.746;2023-12-04T09:08:22;10.45;;;2.35;;
15312;SDS011;7757;52.626;4.746;2023-12-04T09:10:48;8.77;;;2.10;;
15312;SDS011;7757;52.626;4.746;2023-12-04T09:13:14;10.68;;;2.35;;
15312;SDS011;7757;52.626;4.746;2023-12-04T09:15:40;8.65;;;2.20;;
15312;SDS011;7757;52.626;4.746;2023-12-04T09:18:07;8.98;;;2.17;;
15312;SDS011;7757;52.626;4.746;2023-12-04T09:20:35;9.85;;;2.38;;
15312;SDS011;7757;52.626;4.746;2023-12-04T09:23:02;10.30;;;2.38;;
15312;SDS011;7757;52.626;4.746;2023-12-04T09:25:27;8.00;;;2.20;;
15312;SDS011;7757;52.626;4.746;2023-12-04T09:27:55;9.70;;;2.22;;
15312;SDS011;7757;52.626;4.746;2023-12-04T09:30:21;8.13;;;1.98;;
15312;SDS011;7757;52.626;4.746;2023-12-04T09:32:47;10.50;;;3.15;;
15312;SDS011;7757;52.626;4.746;2023-12-04T09:35:12;8.38;;;2.17;;
15312;SDS011;7757;52.626;4.746;2023-12-04T09:37:39;9.98;;;2.28;;
15312;SDS011;7757;52.626;4.746;2023-12-04T09:40:06;8.10;;;2.10;;
15312;SDS011;7757;52.626;4.746;2023-12-04T09:42:33;8.93;;;2.10;;
15312;SDS011;7757;52.626;4.746;2023-12-04T09:44:59;8.27;;;2.38;;
15312;SDS011;7757;52.626;4.746;2023-12-04T09:47:26;7.97;;;2.33;;
15312;SDS011;7757;52.626;4.746;2023-12-04T09:49:52;8.80;;;2.03;;
15312;SDS011;7757;52.626;4.746;2023-12-04T09:52:20;7.70;;;1.90;;
15312;SDS011;7757;52.626;4.746;2023-12-04T09:54:45;8.07;;;2.03;;
15312;SDS011;7757;52.626;4.746;2023-12-04T09:57:11;7.78;;;2.10;;
15312;SDS011;7757;52.626;4.746;2023-12-04T09:59:40;9.07;;;2.03;;
15312;SDS011;7757;52.626;4.746;2023-12-04T10:02:06;7.93;;;2.10;;
15312;SDS011;7757;52.626;4.746;2023-12-04T10:04:32;10.13;;;2.30;;
15312;SDS011;7757;52.626;4.746;2023-12-04T10:06:59;8.95;;;1.90;;
15312;SDS011;7757;52.626;4.746;2023-12-04T10:09:24;10.15;;;2.10;;
15312;SDS011;7757;52.626;4.746;2023-12-04T10:11:51;9.95;;;2.22;;
15312;SDS011;7757;52.626;4.746;2023-12-04T10:14:20;9.02;;;2.00;;
15312;SDS011;7757;52.626;4.746;2023-12-04T10:16:46;8.52;;;2.20;;
15312;SDS011;7757;52.626;4.746;2023-12-04T10:19:25;8.02;;;2.15;;
15312;SDS011;7757;52.626;4.746;2023-12-04T10:21:56;10.98;;;2.38;;
15312;SDS011;7757;52.626;4.746;2023-12-04T10:24:33;7.03;;;1.95;;
15312;SDS011;7757;52.626;4.746;2023-12-04T10:27:07;7.82;;;2.00;;
15312;SDS011;7757;52.626;4.746;2023-12-04T10:32:18;8.73;;;2.00;;
15312;SDS011;7757;52.626;4.746;2023-12-04T10:34:46;8.52;;;2.03;;
15312;SDS011;7757;52.626;4.746;2023-12-04T10:37:12;7.82;;;2.20;;
15312;SDS011;7757;52.626;4.746;2023-12-04T10:39:50;8.27;;;2.35;;
15312;SDS011;7757;52.626;4.746;2023-12-04T10:42:26;6.78;;;1.80;;
15312;SDS011;7757;52.626;4.746;2023-12-04T10:44:57;5.72;;;1.73;;
15312;SDS011;7757;52.626;4.746;2023-12-04T10:47:25;6.30;;;1.80;;
15312;SDS011;7757;52.626;4.746;2023-12-04T10:49:54;7.40;;;2.00;;
15312;SDS011;7757;52.626;4.746;2023-12-04T10:52:20;7.40;;;2.00;;
15312;SDS011;7757;52.626;4.746;2023-12-04T10:54:49;8.10;;;2.10;;
15312;SDS011;7757;52.626;4.746;2023-12-04T10:57:25;8.65;;;1.90;;
15312;SDS011;7757;52.626;4.746;2023-12-04T10:59:52;8.02;;;2.00;;
15312;SDS011;7757;52.626;4.746;2023-12-04T11:02:21;9.32;;;2.20;;
15312;SDS011;7757;52.626;4.746;2023-12-04T11:04:53;8.75;;;1.90;;
15312;SDS011;7757;52.626;4.746;2023-12-04T11:07:20;7.20;;;1.77;;
15312;SDS011;7757;52.626;4.746;2023-12-04T11:09:52;8.45;;;2.25;;
15312;SDS011;7757;52.626;4.746;2023-12-04T11:12:21;6.88;;;1.80;;
15312;SDS011;7757;52.626;4.746;2023-12-04T11:14:53;7.40;;;2.03;;
15312;SDS011;7757;52.626;4.746;2023-12-04T11:17:21;7.60;;;1.90;;
15312;SDS011;7757;52.626;4.746;2023-12-04T11:22:25;8.50;;;2.15;;
15312;SDS011;7757;52.626;4.746;2023-12-04T11:24:52;6.05;;;1.80;;
15312;SDS011;7757;52.626;4.746;2023-12-04T11:27:18;5.55;;;1.52;;
15312;SDS011;7757;52.626;4.746;2023-12-04T11:29:45;7.43;;;2.20;;
15312;SDS011;7757;52.626;4.746;2023-12-04T11:32:14;7.18;;;1.88;;
15312;SDS011;7757;52.626;4.746;2023-12-04T11:34:50;6.40;;;1.70;;
15312;SDS011;7757;52.626;4.746;2023-12-04T11:37:19;7.03;;;1.77;;
15312;SDS011;7757;52.626;4.746;2023-12-04T11:39:51;7.05;;;1.88;;
15312;SDS011;7757;52.626;4.746;2023-12-04T11:42:18;6.65;;;1.90;;
15312;SDS011;7757;52.626;4.746;2023-12-04T11:44:59;7.97;;;1.95;;
15312;SDS011;7757;52.626;4.746;2023-12-04T11:47:25;6.75;;;1.90;;
15312;SDS011;7757;52.626;4.746;2023-12-04T11:49:53;7.25;;;2.05;;
15312;SDS011;7757;52.626;4.746;2023-12-04T11:52:31;7.70;;;2.10;;
15312;SDS011;7757;52.626;4.746;2023-12-04T11:54:59;7.43;;;1.83;;
15312;SDS011;7757;52.626;4.746;2023-12-04T11:57:32;7.60;;;2.03;;
15312;SDS011;7757;52.626;4.746;2023-12-04T12:00:09;7.60;;;2.10;;
15312;SDS011;7757;52.626;4.746;2023-12-04T12:02:46;7.03;;;1.95;;
15312;SDS011;7757;52.626;4.746;2023-12-04T12:05:18;6.75;;;1.85;;
15312;SDS011;7757;52.626;4.746;2023-12-04T12:07:44;7.97;;;2.10;;
15312;SDS011;7757;52.626;4.746;2023-12-04T12:10:11;7.32;;;1.88;;
15312;SDS011;7757;52.626;4.746;2023-12-04T12:12:38;9.38;;;2.10;;
15312;SDS011;7757;52.626;4.746;2023-12-04T12:15:04;8.50;;;2.00;;
15312;SDS011;7757;52.626;4.746;2023-12-04T12:17:34;7.57;;;1.92;;
15312;SDS011;7757;52.626;4.746;2023-12-04T12:19:59;8.55;;;2.20;;
15312;SDS011;7757;52.626;4.746;2023-12-04T12:22:25;7.22;;;1.90;;
15312;SDS011;7757;52.626;4.746;2023-12-04T12:24:53;7.20;;;2.00;;
15312;SDS011;7757;52.626;4.746;2023-12-04T12:27:18;9.25;;;2.05;;
15312;SDS011;7757;52.626;4.746;2023-12-04T12:29:44;8.25;;;1.95;;
15312;SDS011;7757;52.626;4.746;2023-12-04T12:32:10;6.07;;;1.60;;
15312;SDS011;7757;52.626;4.746;2023-12-04T12:34:36;7.75;;;2.00;;
15312;SDS011;7757;52.626;4.746;2023-12-04T12:37:04;7.30;;;2.05;;
15312;SDS011;7757;52.626;4.746;2023-12-04T12:39:31;8.93;;;2.10;;
15312;SDS011;7757;52.626;4.746;2023-12-04T12:41:57;7.57;;;1.85;;
15312;SDS011;7757;52.626;4.746;2023-12-04T12:44:22;6.15;;;1.73;;
15312;SDS011;7757;52.626;4.746;2023-12-04T12:46:49;7.25;;;1.90;;
15312;SDS011;7757;52.626;4.746;2023-12-04T12:49:20;6.35;;;1.92;;
15312;SDS011;7757;52.626;4.746;2023-12-04T12:51:45;7.88;;;2.10;;
15312;SDS011;7757;52.626;4.746;2023-12-04T12:54:13;6.88;;;1.85;;
15312;SDS011;7757;52.626;4.746;2023-12-04T12:56:38;5.40;;;1.65;;
15312;SDS011;7757;52.626;4.746;2023-12-04T12:59:05;7.28;;;1.88;;
15312;SDS011;7757;52.626;4.746;2023-12-04T13:01:32;6.38;;;1.80;;
15312;SDS011;7757;52.626;4.746;2023-12-04T13:03:57;6.90;;;1.73;;
15312;SDS011;7757;52.626;4.746;2023-12-04T13:06:23;8.20;;;2.00;;
15312;SDS011;7757;52.626;4.746;2023-12-04T13:08:49;11.18;;;2.03;;
15312;SDS011;7757;52.626;4.746;2023-12-04T13:11:14;7.65;;;1.90;;
15312;SDS011;7757;52.626;4.746;2023-12-04T13:13:40;7.15;;;1.90;;
15312;SDS011;7757;52.626;4.746;2023-12-04T13:16:06;7.82;;;1.80;;
15312;SDS011;7757;52.626;4.746;2023-12-04T13:18:31;7.22;;;1.80;;
15312;SDS011;7757;52.626;4.746;2023-12-04T13:21:00;7.43;;;1.90;;
15312;SDS011;7757;52.626;4.746;2023-12-04T13:23:26;7.60;;;2.00;;
15312;SDS011;7757;52.626;4.746;2023-12-04T13:25:51;6.70;;;1.70;;
15312;SDS011;7757;52.626;4.746;2023-12-04T13:28:16;6.28;;;1.70;;
15312;SDS011;7757;52.626;4.746;2023-12-04T13:30:42;6.93;;;1.90;;
15312;SDS011;7757;52.626;4.746;2023-12-04T13:33:07;7.70;;;1.80;;
15312;SDS011;7757;52.626;4.746;2023-12-04T13:35:33;7.55;;;1.85;;
15312;SDS011;7757;52.626;4.746;2023-12-04T13:38:01;6.93;;;1.75;;
15312;SDS011;7757;52.626;4.746;2023-12-04T13:40:26;6.70;;;1.85;;
15312;SDS011;7757;52.626;4.746;2023-12-04T13:42:57;7.35;;;1.83;;
15312;SDS011;7757;52.626;4.746;2023-12-04T13:45:41;7.50;;;1.85;;
15312;SDS011;7757;52.626;4.746;2023-12-04T13:48:06;6.45;;;1.83;;
15312;SDS011;7757;52.626;4.746;2023-12-04T13:50:32;7.40;;;1.88;;
15312;SDS011;7757;52.626;4.746;2023-12-04T13:52:57;6.65;;;1.80;;
15312;SDS011;7757;52.626;4.746;2023-12-04T13:55:26;7.00;;;1.65;;
15312;SDS011;7757;52.626;4.746;2023-12-04T13:58:13;6.70;;;1.80;;
15312;SDS011;7757;52.626;4.746;2023-12-04T14:01:03;7.07;;;1.80;;
15312;SDS011;7757;52.626;4.746;2023-12-04T14:03:38;7.43;;;1.90;;
15312;SDS011;7757;52.626;4.746;2023-12-04T14:08:39;6.03;;;1.63;;
15312;SDS011;7757;52.626;4.746;2023-12-04T14:11:05;6.65;;;1.83;;
15312;SDS011;7757;52.626;4.746;2023-12-04T14:13:32;7.20;;;1.92;;
15312;SDS011;7757;52.626;4.746;2023-12-04T14:15:57;9.35;;;1.80;;
15312;SDS011;7757;52.626;4.746;2023-12-04T14:18:23;8.73;;;1.95;;
15312;SDS011;7757;52.626;4.746;2023-12-04T14:20:48;6.95;;;1.77;;
15312;SDS011;7757;52.626;4.746;2023-12-04T14:23:14;9.55;;;2.08;;
15312;SDS011;7757;52.626;4.746;2023-12-04T14:25:41;8.32;;;1.95;;
15312;SDS011;7757;52.626;4.746;2023-12-04T14:28:06;7.57;;;1.90;;
15312;SDS011;7757;52.626;4.746;2023-12-04T14:30:32;6.95;;;1.80;;
15312;SDS011;7757;52.626;4.746;2023-12-04T14:32:58;6.38;;;1.80;;
15312;SDS011;7757;52.626;4.746;2023-12-04T14:35:24;6.82;;;1.75;;
15312;SDS011;7757;52.626;4.746;2023-12-04T14:37:50;8.18;;;1.90;;
15312;SDS011;7757;52.626;4.746;2023-12-04T14:40:16;6.20;;;1.60;;
15312;SDS011;7757;52.626;4.746;2023-12-04T14:42:42;6.65;;;1.70;;
15312;SDS011;7757;52.626;4.746;2023-12-04T14:45:08;10.35;;;2.10;;
15312;SDS011;7757;52.626;4.746;2023-12-04T14:47:34;9.38;;;2.00;;
15312;SDS011;7757;52.626;4.746;2023-12-04T14:50:00;7.57;;;1.90;;
15312;SDS011;7757;52.626;4.746;2023-12-04T14:52:25;5.93;;;1.70;;
15312;SDS011;7757;52.626;4.746;2023-12-04T14:54:55;7.68;;;2.03;;
15312;SDS011;7757;52.626;4.746;2023-12-04T14:57:35;7.13;;;1.95;;
15312;SDS011;7757;52.626;4.746;2023-12-04T15:00:08;10.20;;;1.98;;